Hovedside
METAR-TAF:

METAR-TAF

Lufthavner :

Jomo Kenyatta internasjonale lufthavn

Nairobi, Kenya

breddegrad: 01-19S, lengdegrad: 036-55E, høyde over havet: 1624 m

Gjeldene værobservasjon

Denne rapporten ble laget for 23 minutter siden, klokken 09:00 UTC
Vind 6 kt fra Sør-sørøst
Temperatur 20°C
Luftfuktighet 56%
Trykk 1025 hPa
Sikt 10 km eller mer
Brutte skyer i en høyde av 2500 ft

METAR: HKJK 190900Z 15006KT 9999 BKN025 20/11 Q1025

Tid: 12:23 (09:23 UTC)

Varsel

Denne rapporten ble laget for 4 timer og 23 minutter siden, klokken 05:00 UTC
Varsel gyldig fra 19. klokken 06 UTC til 20. klokken 12 UTC
Vind 5 kt fra Sør
Sikt 10 km eller mer
Spredte skyer i en høyde av 2500 ft
Blir
fra 19. klokken 20 UTC til 19. klokken 23 UTC
Vind 5 kt fra Sørvest
Brutte skyer i en høyde av 1600 ft
Blir
fra 20. klokken 08 UTC til 20. klokken 11 UTC
Vind 5 kt fra Sør
Spredte skyer i en høyde av 2500 ft

TAF: HKJK 190500Z 1906/2012 18005KT 9999 SCT025 BECMG 1920/1923 23005KT BKN016 BECMG 2008/2011 18005KT SCT025

Værobservasjoner og værvarsel for over 4000 flyplasser (METAR- og TAF-rapporter).

Tilgjengelige stasjoner er representert av de røde og gule prikkene på kartet.

Hold musepekeren over prikken for å se navnet på stasjonen.

Klikk så for å se værobservasjoner og -varsler.

For å forandre kartet kan du klikke på den grønne knappen med svart kryss for å zoome inn, på den grønne knappen med strek for å zoome ut, eller på de grønne pilene for å se tilstøtende kart.


METAR-TAF: